sensor_id;sensor_type;location;lat;lon;timestamp;pressure;altitude;pressure_sealevel;temperature;humidity
14343;BME280;7255;53.596;9.960;2023-06-26T00:01:23;101193.94;;;21.20;100.00
14343;BME280;7255;53.596;9.960;2023-06-26T00:03:49;101188.50;;;21.20;100.00
14343;BME280;7255;53.596;9.960;2023-06-26T00:06:16;101192.09;;;21.15;100.00
14343;BME280;7255;53.596;9.960;2023-06-26T00:08:42;101196.72;;;21.15;100.00
14343;BME280;7255;53.596;9.960;2023-06-26T00:11:08;101191.84;;;21.12;100.00
14343;BME280;7255;53.596;9.960;2023-06-26T00:13:36;101189.41;;;21.10;100.00
14343;BME280;7255;53.596;9.960;2023-06-26T00:16:02;101180.91;;;21.12;100.00
14343;BME280;7255;53.596;9.960;2023-06-26T00:18:29;101186.37;;;21.12;100.00
14343;BME280;7255;53.596;9.960;2023-06-26T00:20:56;101182.28;;;21.09;100.00
14343;BME280;7255;53.596;9.960;2023-06-26T00:23:22;101184.50;;;21.07;100.00
14343;BME280;7255;53.596;9.960;2023-06-26T00:25:48;101177.97;;;21.03;100.00
14343;BME280;7255;53.596;9.960;2023-06-26T00:28:14;101184.25;;;21.04;100.00
14343;BME280;7255;53.596;9.960;2023-06-26T00:30:42;101182.63;;;21.03;100.00
14343;BME280;7255;53.596;9.960;2023-06-26T00:33:08;101170.38;;;20.95;100.00
14343;BME280;7255;53.596;9.960;2023-06-26T00:35:35;101172.00;;;20.96;100.00
14343;BME280;7255;53.596;9.960;2023-06-26T00:38:01;101158.63;;;20.94;100.00
14343;BME280;7255;53.596;9.960;2023-06-26T00:40:28;101162.75;;;20.92;100.00
14343;BME280;7255;53.596;9.960;2023-06-26T00:42:54;101158.94;;;20.88;100.00
14343;BME280;7255;53.596;9.960;2023-06-26T00:45:20;101156.28;;;20.83;100.00
14343;BME280;7255;53.596;9.960;2023-06-26T00:47:48;101163.91;;;20.81;100.00
14343;BME280;7255;53.596;9.960;2023-06-26T00:50:14;101160.62;;;20.79;100.00
14343;BME280;7255;53.596;9.960;2023-06-26T00:52:43;101161.47;;;20.79;100.00
14343;BME280;7255;53.596;9.960;2023-06-26T00:55:09;101156.03;;;20.79;100.00
14343;BME280;7255;53.596;9.960;2023-06-26T00:57:35;101153.81;;;20.81;100.00
14343;BME280;7255;53.596;9.960;2023-06-26T01:00:03;101149.41;;;20.85;100.00
14343;BME280;7255;53.596;9.960;2023-06-26T01:02:30;101149.16;;;20.82;100.00
14343;BME280;7255;53.596;9.960;2023-06-26T01:05:01;101149.97;;;20.82;100.00
14343;BME280;7255;53.596;9.960;2023-06-26T01:07:32;101154.91;;;20.80;100.00
14343;BME280;7255;53.596;9.960;2023-06-26T01:10:01;101141.25;;;20.80;100.00
14343;BME280;7255;53.596;9.960;2023-06-26T01:12:29;101139.63;;;20.79;100.00
14343;BME280;7255;53.596;9.960;2023-06-26T01:14:56;101141.00;;;20.76;100.00
14343;BME280;7255;53.596;9.960;2023-06-26T01:17:22;101141.25;;;20.80;100.00
14343;BME280;7255;53.596;9.960;2023-06-26T01:19:49;101141.81;;;20.77;100.00
14343;BME280;7255;53.596;9.960;2023-06-26T01:22:23;101136.94;;;20.74;100.00
14343;BME280;7255;53.596;9.960;2023-06-26T01:24:58;101137.22;;;20.67;100.00
14343;BME280;7255;53.596;9.960;2023-06-26T01:27:30;101129.56;;;20.69;100.00
14343;BME280;7255;53.596;9.960;2023-06-26T01:30:00;101135.37;;;20.63;100.00
14343;BME280;7255;53.596;9.960;2023-06-26T01:32:29;101130.44;;;20.60;100.00
14343;BME280;7255;53.596;9.960;2023-06-26T01:34:56;101124.16;;;20.59;100.00
14343;BME280;7255;53.596;9.960;2023-06-26T01:37:23;101121.72;;;20.57;100.00
14343;BME280;7255;53.596;9.960;2023-06-26T01:39:49;101111.09;;;20.61;100.00
14343;BME280;7255;53.596;9.960;2023-06-26T01:42:16;101110.78;;;20.57;100.00
14343;BME280;7255;53.596;9.960;2023-06-26T01:44:45;101116.81;;;20.54;100.00
14343;BME280;7255;53.596;9.960;2023-06-26T01:47:16;101101.00;;;20.51;100.00
14343;BME280;7255;53.596;9.960;2023-06-26T01:49:47;101100.19;;;20.51;100.00
14343;BME280;7255;53.596;9.960;2023-06-26T01:52:19;101104.03;;;20.50;100.00
14343;BME280;7255;53.596;9.960;2023-06-26T01:54:53;101103.44;;;20.53;100.00
14343;BME280;7255;53.596;9.960;2023-06-26T01:57:20;101095.78;;;20.55;100.00
14343;BME280;7255;53.596;9.960;2023-06-26T01:59:50;101098.56;;;20.50;100.00
14343;BME280;7255;53.596;9.960;2023-06-26T02:02:17;101095.00;;;20.49;100.00
14343;BME280;7255;53.596;9.960;2023-06-26T02:04:43;101091.22;;;20.45;100.00
14343;BME280;7255;53.596;9.960;2023-06-26T02:07:13;101093.66;;;20.47;100.00
14343;BME280;7255;53.596;9.960;2023-06-26T02:09:39;101094.72;;;20.51;100.00
14343;BME280;7255;53.596;9.960;2023-06-26T02:12:06;101086.56;;;20.46;100.00
14343;BME280;7255;53.596;9.960;2023-06-26T02:14:33;101085.50;;;20.42;100.00
14343;BME280;7255;53.596;9.960;2023-06-26T02:17:00;101079.78;;;20.38;100.00
14343;BME280;7255;53.596;9.960;2023-06-26T02:19:27;101082.81;;;20.36;100.00
14343;BME280;7255;53.596;9.960;2023-06-26T02:21:53;101080.38;;;20.35;100.00
14343;BME280;7255;53.596;9.960;2023-06-26T02:24:20;101073.28;;;20.34;100.00
14343;BME280;7255;53.596;9.960;2023-06-26T02:26:46;101074.66;;;20.31;100.00
14343;BME280;7255;53.596;9.960;2023-06-26T02:29:14;101069.75;;;20.28;100.00
14343;BME280;7255;53.596;9.960;2023-06-26T02:31:40;101068.97;;;20.28;100.00
14343;BME280;7255;53.596;9.960;2023-06-26T02:34:08;101077.41;;;20.26;100.00
14343;BME280;7255;53.596;9.960;2023-06-26T02:36:34;101064.88;;;20.25;100.00
14343;BME280;7255;53.596;9.960;2023-06-26T02:39:00;101066.25;;;20.23;100.00
14343;BME280;7255;53.596;9.960;2023-06-26T02:41:27;101057.78;;;20.24;100.00
14343;BME280;7255;53.596;9.960;2023-06-26T02:43:53;101068.72;;;20.24;100.00
14343;BME280;7255;53.596;9.960;2023-06-26T02:46:19;101065.13;;;20.29;100.00
14343;BME280;7255;53.596;9.960;2023-06-26T02:48:46;101055.59;;;20.26;100.00
14343;BME280;7255;53.596;9.960;2023-06-26T02:51:13;101058.84;;;20.28;100.00
14343;BME280;7255;53.596;9.960;2023-06-26T02:53:39;101063.25;;;20.24;100.00
14343;BME280;7255;53.596;9.960;2023-06-26T02:56:06;101058.84;;;20.28;100.00
14343;BME280;7255;53.596;9.960;2023-06-26T02:58:32;101061.31;;;20.30;100.00
14343;BME280;7255;53.596;9.960;2023-06-26T03:00:58;101056.66;;;20.30;100.00
14343;BME280;7255;53.596;9.960;2023-06-26T03:03:25;101047.37;;;20.31;100.00
14343;BME280;7255;53.596;9.960;2023-06-26T03:05:51;101052.59;;;20.28;100.00
14343;BME280;7255;53.596;9.960;2023-06-26T03:08:19;101048.50;;;20.25;100.00
14343;BME280;7255;53.596;9.960;2023-06-26T03:10:45;101041.44;;;20.24;100.00
14343;BME280;7255;53.596;9.960;2023-06-26T03:13:11;101037.59;;;20.25;100.00
14343;BME280;7255;53.596;9.960;2023-06-26T03:15:38;101042.47;;;20.28;100.00
14343;BME280;7255;53.596;9.960;2023-06-26T03:18:04;101041.94;;;20.31;100.00
14343;BME280;7255;53.596;9.960;2023-06-26T03:20:30;101043.53;;;20.32;100.00
14343;BME280;7255;53.596;9.960;2023-06-26T03:22:56;101037.03;;;20.28;100.00
14343;BME280;7255;53.596;9.960;2023-06-26T03:25:24;101041.09;;;20.31;100.00
14343;BME280;7255;53.596;9.960;2023-06-26T03:27:50;101043.53;;;20.32;100.00
14343;BME280;7255;53.596;9.960;2023-06-26T03:30:17;101033.19;;;20.29;100.00
14343;BME280;7255;53.596;9.960;2023-06-26T03:32:43;101038.34;;;20.36;100.00
14343;BME280;7255;53.596;9.960;2023-06-26T03:35:09;101026.03;;;20.38;100.00
14343;BME280;7255;53.596;9.960;2023-06-26T03:37:35;101041.84;;;20.42;100.00
14343;BME280;7255;53.596;9.960;2023-06-26T03:40:02;101039.91;;;20.42;100.00
14343;BME280;7255;53.596;9.960;2023-06-26T03:42:31;101033.63;;;20.47;100.00
14343;BME280;7255;53.596;9.960;2023-06-26T03:44:57;101033.59;;;20.52;100.00
14343;BME280;7255;53.596;9.960;2023-06-26T03:47:23;101026.47;;;20.56;100.00
14343;BME280;7255;53.596;9.960;2023-06-26T03:49:50;101028.59;;;20.64;100.00
14343;BME280;7255;53.596;9.960;2023-06-26T03:52:16;101017.63;;;20.74;100.00
14343;BME280;7255;53.596;9.960;2023-06-26T03:54:42;101021.91;;;20.81;100.00
14343;BME280;7255;53.596;9.960;2023-06-26T03:57:09;101018.09;;;20.82;100.00
14343;BME280;7255;53.596;9.960;2023-06-26T03:59:37;101016.34;;;20.96;100.00
14343;BME280;7255;53.596;9.960;2023-06-26T04:02:03;101016.63;;;20.94;100.00
14343;BME280;7255;53.596;9.960;2023-06-26T04:04:30;101007.91;;;20.92;100.00
14343;BME280;7255;53.596;9.960;2023-06-26T04:06:56;101009.75;;;20.97;100.00
14343;BME280;7255;53.596;9.960;2023-06-26T04:09:24;101016.84;;;20.98;100.00
14343;BME280;7255;53.596;9.960;2023-06-26T04:11:50;101008.94;;;20.96;100.00
14343;BME280;7255;53.596;9.960;2023-06-26T04:14:17;101003.47;;;20.96;100.00
14343;BME280;7255;53.596;9.960;2023-06-26T04:16:44;101005.94;;;20.98;100.00
14343;BME280;7255;53.596;9.960;2023-06-26T04:19:11;101004.78;;;21.04;100.00
14343;BME280;7255;53.596;9.960;2023-06-26T04:21:37;101009.09;;;21.10;100.00
14343;BME280;7255;53.596;9.960;2023-06-26T04:24:04;101006.09;;;21.12;100.00
14343;BME280;7255;53.596;9.960;2023-06-26T04:26:30;101000.03;;;21.15;100.00
14343;BME280;7255;53.596;9.960;2023-06-26T04:28:57;100986.06;;;21.17;100.00
14343;BME280;7255;53.596;9.960;2023-06-26T04:31:23;100990.38;;;21.23;100.00
14343;BME280;7255;53.596;9.960;2023-06-26T04:33:51;100992.00;;;21.24;100.00
14343;BME280;7255;53.596;9.960;2023-06-26T04:36:19;100982.97;;;21.28;100.00
14343;BME280;7255;53.596;9.960;2023-06-26T04:38:46;100989.22;;;21.29;100.00
14343;BME280;7255;53.596;9.960;2023-06-26T04:41:13;100984.28;;;21.31;100.00
14343;BME280;7255;53.596;9.960;2023-06-26T04:43:39;100981.03;;;21.29;100.00
14343;BME280;7255;53.596;9.960;2023-06-26T04:46:06;100980.63;;;21.41;100.00
14343;BME280;7255;53.596;9.960;2023-06-26T04:48:32;100976.56;;;21.38;100.00
14343;BME280;7255;53.596;9.960;2023-06-26T04:51:00;100975.63;;;21.48;100.00
14343;BME280;7255;53.596;9.960;2023-06-26T04:53:26;100976.91;;;21.56;100.00
14343;BME280;7255;53.596;9.960;2023-06-26T04:55:53;100971.59;;;21.64;100.00
14343;BME280;7255;53.596;9.960;2023-06-26T04:58:19;100971.31;;;21.66;100.00
14343;BME280;7255;53.596;9.960;2023-06-26T05:00:46;100966.03;;;21.75;100.00
14343;BME280;7255;53.596;9.960;2023-06-26T05:03:14;100960.84;;;21.73;100.00
14343;BME280;7255;53.596;9.960;2023-06-26T05:05:42;100970.22;;;21.86;100.00
14343;BME280;7255;53.596;9.960;2023-06-26T05:08:16;100968.47;;;21.95;100.00
14343;BME280;7255;53.596;9.960;2023-06-26T05:10:43;100970.28;;;22.00;100.00
14343;BME280;7255;53.596;9.960;2023-06-26T05:13:10;100966.91;;;22.08;100.00
14343;BME280;7255;53.596;9.960;2023-06-26T05:15:36;100962.47;;;22.12;100.00
14343;BME280;7255;53.596;9.960;2023-06-26T05:18:02;100965.34;;;22.21;100.00
14343;BME280;7255;53.596;9.960;2023-06-26T05:20:29;100957.09;;;22.26;100.00
14343;BME280;7255;53.596;9.960;2023-06-26T05:22:56;100955.87;;;22.32;100.00
14343;BME280;7255;53.596;9.960;2023-06-26T05:25:24;100945.97;;;22.36;100.00
14343;BME280;7255;53.596;9.960;2023-06-26T05:27:51;100948.25;;;22.48;100.00
14343;BME280;7255;53.596;9.960;2023-06-26T05:30:19;100943.19;;;22.55;100.00
14343;BME280;7255;53.596;9.960;2023-06-26T05:32:46;100940.19;;;22.71;100.00
14343;BME280;7255;53.596;9.960;2023-06-26T05:35:13;100947.84;;;23.01;100.00
14343;BME280;7255;53.596;9.960;2023-06-26T05:37:41;100939.22;;;23.50;100.00
14343;BME280;7255;53.596;9.960;2023-06-26T05:40:09;100938.50;;;23.58;100.00
14343;BME280;7255;53.596;9.960;2023-06-26T05:42:37;100921.75;;;23.59;100.00
14343;BME280;7255;53.596;9.960;2023-06-26T05:45:04;100928.44;;;23.53;100.00
14343;BME280;7255;53.596;9.960;2023-06-26T05:47:30;100922.28;;;23.48;100.00
14343;BME280;7255;53.596;9.960;2023-06-26T05:49:57;100914.25;;;23.51;100.00
14343;BME280;7255;53.596;9.960;2023-06-26T05:52:23;100920.72;;;23.55;100.00
14343;BME280;7255;53.596;9.960;2023-06-26T05:54:50;100926.41;;;23.59;100.00
14343;BME280;7255;53.596;9.960;2023-06-26T05:57:17;100920.09;;;23.72;100.00
14343;BME280;7255;53.596;9.960;2023-06-26T05:59:46;100916.62;;;23.80;100.00
14343;BME280;7255;53.596;9.960;2023-06-26T06:02:12;100923.31;;;23.88;100.00
14343;BME280;7255;53.596;9.960;2023-06-26T06:04:38;100915.16;;;23.97;100.00
14343;BME280;7255;53.596;9.960;2023-06-26T06:07:05;100913.91;;;24.03;100.00
14343;BME280;7255;53.596;9.960;2023-06-26T06:09:31;100913.69;;;24.13;100.00
14343;BME280;7255;53.596;9.960;2023-06-26T06:11:58;100908.56;;;24.20;100.00
14343;BME280;7255;53.596;9.960;2023-06-26T06:14:24;100913.62;;;24.27;100.00
14343;BME280;7255;53.596;9.960;2023-06-26T06:16:52;100908.84;;;24.41;100.00
14343;BME280;7255;53.596;9.960;2023-06-26T06:19:18;100905.34;;;24.50;100.00
14343;BME280;7255;53.596;9.960;2023-06-26T06:21:44;100901.41;;;24.65;100.00
14343;BME280;7255;53.596;9.960;2023-06-26T06:24:11;100907.28;;;24.72;100.00
14343;BME280;7255;53.596;9.960;2023-06-26T06:26:37;100910.88;;;24.81;100.00
14343;BME280;7255;53.596;9.960;2023-06-26T06:29:03;100905.47;;;24.98;100.00
14343;BME280;7255;53.596;9.960;2023-06-26T06:31:31;100901.94;;;25.15;99.60
14343;BME280;7255;53.596;9.960;2023-06-26T06:33:58;100895.97;;;25.13;99.28
14343;BME280;7255;53.596;9.960;2023-06-26T06:36:25;100891.19;;;25.28;99.08
14343;BME280;7255;53.596;9.960;2023-06-26T06:38:51;100887.16;;;25.43;97.20
14343;BME280;7255;53.596;9.960;2023-06-26T06:41:17;100882.97;;;25.54;96.53
14343;BME280;7255;53.596;9.960;2023-06-26T06:43:44;100890.87;;;25.64;95.87
14343;BME280;7255;53.596;9.960;2023-06-26T06:46:10;100877.97;;;25.73;95.31
14343;BME280;7255;53.596;9.960;2023-06-26T06:48:36;100875.84;;;25.79;94.51
14343;BME280;7255;53.596;9.960;2023-06-26T06:51:04;100877.63;;;25.84;94.09
14343;BME280;7255;53.596;9.960;2023-06-26T06:53:30;100868.41;;;25.97;94.39
14343;BME280;7255;53.596;9.960;2023-06-26T06:55:57;100861.28;;;25.79;90.30
14343;BME280;7255;53.596;9.960;2023-06-26T06:58:23;100868.06;;;25.90;91.41
14343;BME280;7255;53.596;9.960;2023-06-26T07:00:49;100861.28;;;25.79;93.30
14343;BME280;7255;53.596;9.960;2023-06-26T07:03:17;100859.47;;;25.91;93.62
14343;BME280;7255;53.596;9.960;2023-06-26T07:05:43;100854.47;;;26.02;93.67
14343;BME280;7255;53.596;9.960;2023-06-26T07:08:11;100864.19;;;26.08;91.42
14343;BME280;7255;53.596;9.960;2023-06-26T07:10:38;100861.13;;;26.01;91.09
14343;BME280;7255;53.596;9.960;2023-06-26T07:13:04;100866.97;;;26.00;90.98
14343;BME280;7255;53.596;9.960;2023-06-26T07:15:31;100868.06;;;26.07;91.59
14343;BME280;7255;53.596;9.960;2023-06-26T07:17:57;100862.88;;;26.15;91.88
14343;BME280;7255;53.596;9.960;2023-06-26T07:20:23;100859.12;;;26.19;91.32
14343;BME280;7255;53.596;9.960;2023-06-26T07:22:50;100866.75;;;26.31;90.57
14343;BME280;7255;53.596;9.960;2023-06-26T07:25:17;100854.25;;;26.34;90.81
14343;BME280;7255;53.596;9.960;2023-06-26T07:27:44;100857.16;;;26.37;90.51
14343;BME280;7255;53.596;9.960;2023-06-26T07:30:10;100853.09;;;26.43;89.82
14343;BME280;7255;53.596;9.960;2023-06-26T07:32:37;100857.28;;;26.49;90.87
14343;BME280;7255;53.596;9.960;2023-06-26T07:35:05;100857.91;;;26.64;89.46
14343;BME280;7255;53.596;9.960;2023-06-26T07:37:32;100867.31;;;26.63;90.43
14343;BME280;7255;53.596;9.960;2023-06-26T07:39:58;100863.03;;;26.74;88.43
14343;BME280;7255;53.596;9.960;2023-06-26T07:42:26;100855.88;;;26.82;89.13
14343;BME280;7255;53.596;9.960;2023-06-26T07:44:52;100855.81;;;26.91;88.69
14343;BME280;7255;53.596;9.960;2023-06-26T07:47:18;100864.72;;;26.96;88.20
14343;BME280;7255;53.596;9.960;2023-06-26T07:49:45;100844.28;;;26.97;88.82
14343;BME280;7255;53.596;9.960;2023-06-26T07:52:11;100856.53;;;27.08;87.68
14343;BME280;7255;53.596;9.960;2023-06-26T07:54:40;100845.28;;;27.22;85.29
14343;BME280;7255;53.596;9.960;2023-06-26T07:57:07;100847.06;;;27.48;85.79
14343;BME280;7255;53.596;9.960;2023-06-26T07:59:35;100848.94;;;27.56;84.61
14343;BME280;7255;53.596;9.960;2023-06-26T08:02:01;100846.09;;;27.86;84.43
14343;BME280;7255;53.596;9.960;2023-06-26T08:04:28;100840.78;;;28.14;81.71
14343;BME280;7255;53.596;9.960;2023-06-26T08:06:57;100840.50;;;28.28;77.64
14343;BME280;7255;53.596;9.960;2023-06-26T08:09:26;100831.13;;;28.54;76.19
14343;BME280;7255;53.596;9.960;2023-06-26T08:11:52;100832.16;;;28.62;76.44
14343;BME280;7255;53.596;9.960;2023-06-26T08:14:19;100826.97;;;28.72;77.50
14343;BME280;7255;53.596;9.960;2023-06-26T08:16:47;100825.56;;;28.78;77.33
14343;BME280;7255;53.596;9.960;2023-06-26T08:19:15;100814.84;;;28.65;73.88
14343;BME280;7255;53.596;9.960;2023-06-26T08:21:42;100808.41;;;28.60;74.95
14343;BME280;7255;53.596;9.960;2023-06-26T08:24:08;100801.22;;;28.35;73.24
14343;BME280;7255;53.596;9.960;2023-06-26T08:26:35;100802.03;;;28.35;73.54
14343;BME280;7255;53.596;9.960;2023-06-26T08:29:02;100797.69;;;28.47;75.56
14343;BME280;7255;53.596;9.960;2023-06-26T08:31:32;100806.69;;;28.56;75.96
14343;BME280;7255;53.596;9.960;2023-06-26T08:34:00;100806.94;;;28.63;76.62
14343;BME280;7255;53.596;9.960;2023-06-26T08:36:26;100800.81;;;28.70;75.76
14343;BME280;7255;53.596;9.960;2023-06-26T08:38:53;100804.38;;;28.83;74.07
14343;BME280;7255;53.596;9.960;2023-06-26T08:41:19;100814.19;;;28.92;73.87
14343;BME280;7255;53.596;9.960;2023-06-26T08:43:45;100812.63;;;29.20;67.24
14343;BME280;7255;53.596;9.960;2023-06-26T08:46:14;100814.69;;;29.35;66.19
14343;BME280;7255;53.596;9.960;2023-06-26T08:48:42;100832.66;;;29.41;67.04
14343;BME280;7255;53.596;9.960;2023-06-26T08:51:16;100848.84;;;28.90;65.90
14343;BME280;7255;53.596;9.960;2023-06-26T08:53:47;100864.28;;;28.54;66.79
14343;BME280;7255;53.596;9.960;2023-06-26T08:56:17;100869.72;;;28.29;69.63
14343;BME280;7255;53.596;9.960;2023-06-26T08:58:46;100881.69;;;28.33;71.67
14343;BME280;7255;53.596;9.960;2023-06-26T09:01:13;100873.84;;;28.23;73.91
14343;BME280;7255;53.596;9.960;2023-06-26T09:03:39;100873.19;;;28.38;71.29
14343;BME280;7255;53.596;9.960;2023-06-26T09:06:06;100876.63;;;28.23;74.74
14343;BME280;7255;53.596;9.960;2023-06-26T09:08:34;100881.09;;;28.15;73.01
14343;BME280;7255;53.596;9.960;2023-06-26T09:11:01;100878.34;;;28.28;76.46
14343;BME280;7255;53.596;9.960;2023-06-26T09:13:29;100879.38;;;28.35;74.64
14343;BME280;7255;53.596;9.960;2023-06-26T09:15:56;100881.91;;;28.62;78.20
14343;BME280;7255;53.596;9.960;2023-06-26T09:18:23;100884.78;;;28.77;73.76
14343;BME280;7255;53.596;9.960;2023-06-26T09:20:49;100887.19;;;28.67;74.09
14343;BME280;7255;53.596;9.960;2023-06-26T09:23:16;100909.31;;;28.67;75.20
14343;BME280;7255;53.596;9.960;2023-06-26T09:25:46;100900.38;;;28.49;75.14
14343;BME280;7255;53.596;9.960;2023-06-26T09:28:13;100897.47;;;28.33;76.41
14343;BME280;7255;53.596;9.960;2023-06-26T09:30:40;100901.81;;;28.21;75.10
14343;BME280;7255;53.596;9.960;2023-06-26T09:33:14;100907.34;;;27.79;77.88
14343;BME280;7255;53.596;9.960;2023-06-26T09:35:40;100920.53;;;27.53;83.38
14343;BME280;7255;53.596;9.960;2023-06-26T09:38:07;100913.66;;;27.38;82.37
14343;BME280;7255;53.596;9.960;2023-06-26T09:40:33;100924.47;;;27.13;87.88
14343;BME280;7255;53.596;9.960;2023-06-26T09:43:03;100943.44;;;26.76;88.48
14343;BME280;7255;53.596;9.960;2023-06-26T09:45:31;100938.59;;;26.56;85.41
14343;BME280;7255;53.596;9.960;2023-06-26T09:48:00;100934.41;;;26.49;89.90
14343;BME280;7255;53.596;9.960;2023-06-26T09:50:26;100941.25;;;26.43;92.74
14343;BME280;7255;53.596;9.960;2023-06-26T09:52:52;100948.72;;;26.17;95.14
14343;BME280;7255;53.596;9.960;2023-06-26T09:55:19;100947.75;;;25.95;98.27
14343;BME280;7255;53.596;9.960;2023-06-26T09:57:47;100948.66;;;25.64;98.81
14343;BME280;7255;53.596;9.960;2023-06-26T10:00:15;100964.19;;;25.60;100.00
14343;BME280;7255;53.596;9.960;2023-06-26T10:02:42;100963.03;;;25.52;100.00
14343;BME280;7255;53.596;9.960;2023-06-26T10:05:08;100961.38;;;25.34;100.00
14343;BME280;7255;53.596;9.960;2023-06-26T10:07:35;100965.56;;;24.91;100.00
14343;BME280;7255;53.596;9.960;2023-06-26T10:10:04;100966.84;;;24.40;100.00
14343;BME280;7255;53.596;9.960;2023-06-26T10:12:31;100981.91;;;24.29;100.00
14343;BME280;7255;53.596;9.960;2023-06-26T10:14:58;100982.50;;;24.03;100.00
14343;BME280;7255;53.596;9.960;2023-06-26T10:17:28;100977.47;;;23.96;100.00
14343;BME280;7255;53.596;9.960;2023-06-26T10:19:58;100984.69;;;23.78;100.00
14343;BME280;7255;53.596;9.960;2023-06-26T10:22:30;101009.91;;;23.25;100.00
14343;BME280;7255;53.596;9.960;2023-06-26T10:25:00;101040.63;;;22.56;100.00
14343;BME280;7255;53.596;9.960;2023-06-26T10:27:31;101025.53;;;21.59;100.00
14343;BME280;7255;53.596;9.960;2023-06-26T10:30:03;101044.56;;;21.15;100.00
14343;BME280;7255;53.596;9.960;2023-06-26T10:32:32;101060.00;;;20.67;100.00
14343;BME280;7255;53.596;9.960;2023-06-26T10:34:59;101062.31;;;20.44;100.00
14343;BME280;7255;53.596;9.960;2023-06-26T10:37:41;101062.62;;;20.37;100.00
14343;BME280;7255;53.596;9.960;2023-06-26T10:40:08;101052.62;;;20.17;100.00
14343;BME280;7255;53.596;9.960;2023-06-26T10:42:35;101060.59;;;20.09;100.00
14343;BME280;7255;53.596;9.960;2023-06-26T10:45:09;101056.25;;;20.03;100.00
14343;BME280;7255;53.596;9.960;2023-06-26T10:47:37;101069.81;;;20.18;100.00
14343;BME280;7255;53.596;9.960;2023-06-26T10:50:17;101063.84;;;20.11;100.00
14343;BME280;7255;53.596;9.960;2023-06-26T10:52:44;101064.34;;;20.18;100.00
14343;BME280;7255;53.596;9.960;2023-06-26T10:55:10;101058.97;;;20.52;100.00
14343;BME280;7255;53.596;9.960;2023-06-26T10:57:37;101069.22;;;20.76;100.00
14343;BME280;7255;53.596;9.960;2023-06-26T11:00:09;101068.31;;;20.86;100.00
14343;BME280;7255;53.596;9.960;2023-06-26T11:02:48;101066.94;;;20.88;100.00
14343;BME280;7255;53.596;9.960;2023-06-26T11:05:23;101072.62;;;20.92;100.00
14343;BME280;7255;53.596;9.960;2023-06-26T11:08:04;101080.00;;;21.21;100.00
14343;BME280;7255;53.596;9.960;2023-06-26T11:10:48;101084.16;;;21.47;100.00
14343;BME280;7255;53.596;9.960;2023-06-26T11:13:16;101087.44;;;21.73;100.00
14343;BME280;7255;53.596;9.960;2023-06-26T11:15:43;101085.69;;;21.83;100.00
14343;BME280;7255;53.596;9.960;2023-06-26T11:18:12;101082.53;;;21.70;100.00
14343;BME280;7255;53.596;9.960;2023-06-26T11:20:39;101079.28;;;21.68;100.00
14343;BME280;7255;53.596;9.960;2023-06-26T11:23:05;101083.94;;;21.68;100.00
14343;BME280;7255;53.596;9.960;2023-06-26T11:25:34;101079.88;;;21.65;100.00
14343;BME280;7255;53.596;9.960;2023-06-26T11:28:01;101088.13;;;21.60;100.00
14343;BME280;7255;53.596;9.960;2023-06-26T11:30:27;101080.97;;;21.35;100.00
14343;BME280;7255;53.596;9.960;2023-06-26T11:33:02;101096.03;;;21.62;100.00
14343;BME280;7255;53.596;9.960;2023-06-26T11:35:30;101101.75;;;21.89;100.00
14343;BME280;7255;53.596;9.960;2023-06-26T11:37:56;101094.28;;;21.95;100.00
14343;BME280;7255;53.596;9.960;2023-06-26T11:40:26;101097.44;;;21.83;100.00
14343;BME280;7255;53.596;9.960;2023-06-26T11:42:55;101114.53;;;22.18;100.00
14343;BME280;7255;53.596;9.960;2023-06-26T11:45:22;101111.03;;;22.37;100.00
14343;BME280;7255;53.596;9.960;2023-06-26T11:47:48;101115.75;;;22.50;100.00
14343;BME280;7255;53.596;9.960;2023-06-26T11:50:15;101118.81;;;23.00;100.00
14343;BME280;7255;53.596;9.960;2023-06-26T11:52:44;101127.34;;;22.80;100.00
14343;BME280;7255;53.596;9.960;2023-06-26T11:55:10;101128.41;;;22.65;100.00
14343;BME280;7255;53.596;9.960;2023-06-26T11:57:37;101126.62;;;22.74;100.00
14343;BME280;7255;53.596;9.960;2023-06-26T12:00:11;101125.37;;;22.66;100.00
14343;BME280;7255;53.596;9.960;2023-06-26T12:02:37;101146.75;;;22.45;100.00
14343;BME280;7255;53.596;9.960;2023-06-26T12:05:05;101148.66;;;22.26;100.00
14343;BME280;7255;53.596;9.960;2023-06-26T12:07:32;101155.87;;;21.92;100.00
14343;BME280;7255;53.596;9.960;2023-06-26T12:10:01;101154.75;;;21.94;100.00
14343;BME280;7255;53.596;9.960;2023-06-26T12:12:28;101160.41;;;21.78;100.00
14343;BME280;7255;53.596;9.960;2023-06-26T12:14:55;101169.47;;;21.98;100.00
14343;BME280;7255;53.596;9.960;2023-06-26T12:17:22;101158.28;;;21.94;100.00
14343;BME280;7255;53.596;9.960;2023-06-26T12:19:50;101136.88;;;22.01;100.00
14343;BME280;7255;53.596;9.960;2023-06-26T12:22:17;101153.75;;;22.33;100.00
14343;BME280;7255;53.596;9.960;2023-06-26T12:24:44;101153.94;;;22.60;100.00
14343;BME280;7255;53.596;9.960;2023-06-26T12:27:14;101150.41;;;22.79;100.00
14343;BME280;7255;53.596;9.960;2023-06-26T12:29:45;101153.69;;;22.95;100.00
14343;BME280;7255;53.596;9.960;2023-06-26T12:32:12;101158.16;;;22.91;100.00
14343;BME280;7255;53.596;9.960;2023-06-26T12:34:39;101168.87;;;23.25;100.00
14343;BME280;7255;53.596;9.960;2023-06-26T12:37:07;101167.75;;;23.26;100.00
14343;BME280;7255;53.596;9.960;2023-06-26T12:39:47;101167.09;;;22.96;100.00
14343;BME280;7255;53.596;9.960;2023-06-26T12:42:17;101180.44;;;22.84;100.00
14343;BME280;7255;53.596;9.960;2023-06-26T12:44:43;101176.00;;;22.88;100.00
14343;BME280;7255;53.596;9.960;2023-06-26T12:47:10;101164.88;;;22.98;100.00
14343;BME280;7255;53.596;9.960;2023-06-26T12:49:39;101170.97;;;23.14;100.00
14343;BME280;7255;53.596;9.960;2023-06-26T12:52:07;101185.69;;;23.18;96.34
14343;BME280;7255;53.596;9.960;2023-06-26T12:54:34;101176.16;;;23.16;83.67